Nearby METAR Reports

 

KFRG - , , USA
Distance from station: SSW 12mi, 20km
Updated: 02/25/2018 5:53am
Rain, Mist, Overcast
Rain, Mist, Overcast
 Wind from E
Wind: E 16 mph , 26 km/h, Gust: 25 mph , 41 km/h
Temperature: 45°F , 7°C
Wind Chill: 38°F , 3°C
Dew Point: 41°F , 5°C
Humidity: 87%
Barometer: 30.13 inHg , 1020.3 hPa
Summary: Rain, Mist
Clouds: Overcast
Visibility: 6 miles , 10 km
Cloud details: Mostly cloudy 1000 ft
Overcast 2000 ft
2018/02/25 10:53 KFRG 251053Z AUTO 09014G22KT 6SM RA BR BKN010 OVC020 07/05 A3013 RMK AO2 CIG 007V014 SLP202 P0012 T00670050
KISP - , , USA
Distance from station: ESE 14mi, 23km
Updated: 02/25/2018 5:56am
Rain, Mist, Overcast
Rain, Mist, Overcast
 Wind from E
Wind: E 17 mph , 28 km/h
Temperature: 43°F , 6°C
Wind Chill: 35°F , 2°C
Dew Point: 43°F , 6°C
Humidity: 100%
Barometer: 30.14 inHg , 1020.7 hPa
Summary: Rain, Mist
Clouds: Overcast
Visibility: 4 miles , 6 km
Cloud details: Mostly cloudy 900 ft
Mostly cloudy 2000 ft
Overcast 6000 ft
2018/02/25 10:56 KISP 251056Z 10015KT 4SM RA BR BKN009 BKN020 OVC060 06/06 A3014 RMK AO2 SLP205 P0014 T00610056
 
KBDR - , , USA
Distance from station: NNE 21mi, 34km
Updated: 02/25/2018 5:52am
Rain, Mist, Overcast
Rain, Mist, Overcast
 Wind from ENE
Wind: ENE 20 mph , 31 km/h
Temperature: 39°F , 4°C
Wind Chill: 29°F , -2°C
Dew Point: 36°F , 2°C
Humidity: 87%
Barometer: 30.17 inHg , 1021.7 hPa
Summary: Rain, Mist
Clouds: Overcast
Visibility: 5 miles , 8 km
Cloud details: Overcast 1800 ft
2018/02/25 10:52 KBDR 251052Z AUTO 07017KT 5SM RA BR OVC018 04/02 A3017 RMK AO2 SLP216 P0013 T00440022
KHPN - , , USA
Distance from station: WNW 22mi, 35km
Updated: 02/25/2018 5:56am
Rain, Mist, Overcast
Rain, Mist, Overcast
 Wind from E
Wind: E 20 mph , 31 km/h, Gust: 26 mph , 43 km/h
Temperature: 39°F , 4°C
Wind Chill: 29°F , -2°C
Dew Point: 37°F , 3°C
Humidity: 93%
Barometer: 30.09 inHg , 1019 hPa
Summary: Rain, Mist
Clouds: Overcast
Visibility: 4 miles , 6 km
Cloud details: Mostly cloudy 700 ft
Overcast 1100 ft
2018/02/25 10:56 KHPN 251056Z 09017G23KT 4SM RA BR BKN007 OVC011 04/03 A3009 RMK AO2 SLP195 P0013 T00390028
 
KHWV - , , USA
Distance from station: ESE 26mi, 41km
Updated: 02/25/2018 6:12am
Rain, Mist, Overcast
Rain, Mist, Overcast
 Wind from ENE
Wind: ENE 9 mph , 15 km/h, Gust: 18 mph , 30 km/h
Temperature: 43°F , 6°C
Wind Chill: 38°F , 3°C
Dew Point: 43°F , 6°C
Humidity: 100%
Barometer: 30.14 inHg , 1020.7 hPa
Summary: Rain, Mist
Clouds: Overcast
Visibility: 5 miles , 8 km
Cloud details: Mostly cloudy 900 ft
Mostly cloudy 1200 ft
Overcast 2000 ft
2018/02/25 11:12 KHWV 251112Z AUTO 07008G16KT 5SM RA BR BKN009 BKN012 OVC020 06/06 A3014 RMK AO2 P0004 T00560056
KJFK - , , USA
Distance from station: SW 29mi, 46km
Updated: 02/25/2018 5:51am
Heavy rain, Mist, Overcast
Heavy rain, Mist, Overcast
 Wind from E
Wind: E 18 mph , 30 km/h
Temperature: 45°F , 7°C
Wind Chill: 37°F , 3°C
Dew Point: 43°F , 6°C
Humidity: 93%
Barometer: 30.14 inHg , 1020.7 hPa
Summary: Heavy rain, Mist
Clouds: Overcast
Visibility: 3 miles , 5 km
Cloud details: Mostly cloudy 900 ft
Overcast 1800 ft
2018/02/25 10:51 KJFK 251051Z 08016KT 3SM +RA BR BKN009 OVC018 07/06 A3014 RMK AO2 SLP206 P0021 T00670056
 
KLGA - , , USA
Distance from station: WSW 29mi, 47km
Updated: 02/25/2018 5:51am
Rain, Mist, Overcast
Rain, Mist, Overcast
 Wind from ENE
Wind: ENE 10 mph , 17 km/h
Temperature: 41°F , 5°C
Wind Chill: 35°F , 2°C
Dew Point: 39°F , 4°C
Humidity: 93%
Barometer: 30.11 inHg , 1019.6 hPa
Summary: Rain, Mist
Clouds: Overcast
Visibility: 5 miles , 8 km
Cloud details: Mostly cloudy 500 ft
Overcast 1300 ft
2018/02/25 10:51 KLGA 251051Z 07009KT 5SM RA BR BKN005 OVC013 05/04 A3011 RMK AO2 SLP197 P0013 T00500039